This is the latest recevied weather packets stored in our database for station/object IU1OLT-7. If no packets are shown the sender has not sent any weather packets the latest 10 day(s).
| Time | Temp. | Humidity | Pressure | Rain* | Wind** | Luminosity | Snow |
|---|---|---|---|---|---|---|---|
| 1787417594 | 29.44° C | 39% | 1020.9 hPa | - | - | - | - |
| 1787416694 | 28.89° C | 39% | 1020.9 hPa | - | - | - | - |
| 1787415794 | 28.89° C | 42% | 1021 hPa | - | - | - | - |
| 1787414894 | 27.22° C | 44% | 1020.9 hPa | - | - | - | - |
| 1787413994 | 25.56° C | 51% | 1020.9 hPa | - | - | - | - |
| 1787413094 | 27.78° C | 43% | 1020.8 hPa | - | - | - | - |
| 1787412194 | 23.33° C | 57% | 1020.9 hPa | - | - | - | - |
| 1787411295 | 30.56° C | 38% | 1020.7 hPa | - | - | - | - |
| 1787409494 | 32.22° C | 38% | 1020.6 hPa | - | - | - | - |
| 1787408595 | 28.89° C | 43% | 1020.7 hPa | - | - | - | - |
| 1787407694 | 31.11° C | 37% | 1020.5 hPa | - | - | - | - |
| 1787406795 | 28.33° C | 47% | 1020.6 hPa | - | - | - | - |
| 1787405895 | 25.56° C | 50% | 1020.7 hPa | - | - | - | - |
| 1787404995 | 25° C | 54% | 1020.7 hPa | - | - | - | - |
| 1787404094 | 23.33° C | 61% | 1020.7 hPa | - | - | - | - |
| 1787403194 | 22.78° C | 65% | 1020.7 hPa | - | - | - | - |
| 1787402294 | 23.89° C | 64% | 1020.8 hPa | - | - | - | - |
| 1787401394 | 21.67° C | 73% | 1020.8 hPa | - | - | - | - |
| 1787400493 | 22.22° C | 71% | 1020.6 hPa | - | - | - | - |
| 1787399593 | 19.44° C | 93% | 1020.7 hPa | - | - | - | - |
| 1787398694 | 20.56° C | 83% | 1020.5 hPa | - | - | - | - |
| 1787397794 | 20.56° C | 78% | 1020.5 hPa | - | - | - | - |
| 1787396890 | 20° C | 75% | 1020.5 hPa | - | - | - | - |
| 1787395990 | 21.11° C | 71% | 1020.3 hPa | - | - | - | - |
| 1787395090 | 21.67° C | 83% | 1020.3 hPa | - | - | - | - |
* Rain since midnight (hover to see other rain measurements)
** Current wind speed in m/s (hover to see current wind gust speed)